sensor_id;sensor_type;location;lat;lon;timestamp;temperature;humidity
33269;DHT22;19640;50.944;5.260;2023-01-25T00:02:06;1.90;99.90
33269;DHT22;19640;50.944;5.260;2023-01-25T00:04:32;1.90;99.90
33269;DHT22;19640;50.944;5.260;2023-01-25T00:06:57;1.80;99.90
33269;DHT22;19640;50.944;5.260;2023-01-25T00:09:24;1.90;99.90
33269;DHT22;19640;50.944;5.260;2023-01-25T00:11:50;1.90;99.90
33269;DHT22;19640;50.944;5.260;2023-01-25T00:14:17;2.00;99.90
33269;DHT22;19640;50.944;5.260;2023-01-25T00:16:44;1.70;99.90
33269;DHT22;19640;50.944;5.260;2023-01-25T00:19:10;1.70;99.90
33269;DHT22;19640;50.944;5.260;2023-01-25T00:21:36;1.80;99.90
33269;DHT22;19640;50.944;5.260;2023-01-25T00:24:02;1.80;99.90
33269;DHT22;19640;50.944;5.260;2023-01-25T00:26:32;1.80;99.90
33269;DHT22;19640;50.944;5.260;2023-01-25T00:28:58;1.70;99.90
33269;DHT22;19640;50.944;5.260;2023-01-25T00:36:55;1.80;99.90
33269;DHT22;19640;50.944;5.260;2023-01-25T00:39:22;1.90;99.90
33269;DHT22;19640;50.944;5.260;2023-01-25T00:41:48;2.00;99.90
33269;DHT22;19640;50.944;5.260;2023-01-25T00:44:13;2.10;99.90
33269;DHT22;19640;50.944;5.260;2023-01-25T00:46:39;2.20;99.90
33269;DHT22;19640;50.944;5.260;2023-01-25T00:49:05;2.00;99.90
33269;DHT22;19640;50.944;5.260;2023-01-25T00:51:31;2.00;99.90
33269;DHT22;19640;50.944;5.260;2023-01-25T00:53:57;2.00;99.90
33269;DHT22;19640;50.944;5.260;2023-01-25T00:56:22;2.00;99.90
33269;DHT22;19640;50.944;5.260;2023-01-25T00:58:48;1.90;99.90
33269;DHT22;19640;50.944;5.260;2023-01-25T01:01:14;1.70;99.90
33269;DHT22;19640;50.944;5.260;2023-01-25T01:03:39;1.80;99.90
33269;DHT22;19640;50.944;5.260;2023-01-25T01:06:07;1.90;99.90
33269;DHT22;19640;50.944;5.260;2023-01-25T01:08:34;1.80;99.90
33269;DHT22;19640;50.944;5.260;2023-01-25T01:11:03;1.70;99.90
33269;DHT22;19640;50.944;5.260;2023-01-25T01:13:30;1.70;99.90
33269;DHT22;19640;50.944;5.260;2023-01-25T01:15:56;1.90;99.90
33269;DHT22;19640;50.944;5.260;2023-01-25T01:18:22;2.00;99.90
33269;DHT22;19640;50.944;5.260;2023-01-25T01:20:51;2.00;99.90
33269;DHT22;19640;50.944;5.260;2023-01-25T01:23:18;2.00;99.90
33269;DHT22;19640;50.944;5.260;2023-01-25T01:25:44;2.00;99.90
33269;DHT22;19640;50.944;5.260;2023-01-25T01:28:09;1.90;99.90
33269;DHT22;19640;50.944;5.260;2023-01-25T01:30:36;1.80;99.90
33269;DHT22;19640;50.944;5.260;2023-01-25T01:33:01;1.80;99.90
33269;DHT22;19640;50.944;5.260;2023-01-25T01:35:31;1.70;99.90
33269;DHT22;19640;50.944;5.260;2023-01-25T01:37:57;1.80;99.90
33269;DHT22;19640;50.944;5.260;2023-01-25T01:40:23;1.90;99.90
33269;DHT22;19640;50.944;5.260;2023-01-25T01:43:06;2.00;99.90
33269;DHT22;19640;50.944;5.260;2023-01-25T01:46:11;1.90;99.90
33269;DHT22;19640;50.944;5.260;2023-01-25T01:48:45;2.00;99.90
33269;DHT22;19640;50.944;5.260;2023-01-25T01:53:48;2.10;99.90
33269;DHT22;19640;50.944;5.260;2023-01-25T01:56:20;1.80;99.90
33269;DHT22;19640;50.944;5.260;2023-01-25T01:58:49;1.90;99.90
33269;DHT22;19640;50.944;5.260;2023-01-25T02:01:16;2.10;99.90
33269;DHT22;19640;50.944;5.260;2023-01-25T02:03:43;2.10;99.90
33269;DHT22;19640;50.944;5.260;2023-01-25T02:09:08;2.10;99.90
33269;DHT22;19640;50.944;5.260;2023-01-25T02:11:34;1.90;99.90
33269;DHT22;19640;50.944;5.260;2023-01-25T02:14:01;1.90;99.90
33269;DHT22;19640;50.944;5.260;2023-01-25T02:16:27;1.90;99.90
33269;DHT22;19640;50.944;5.260;2023-01-25T02:18:55;1.90;99.90
33269;DHT22;19640;50.944;5.260;2023-01-25T02:21:23;1.90;99.90
33269;DHT22;19640;50.944;5.260;2023-01-25T02:26:18;1.90;99.90
33269;DHT22;19640;50.944;5.260;2023-01-25T02:28:54;2.00;99.90
33269;DHT22;19640;50.944;5.260;2023-01-25T02:31:20;2.00;99.90
33269;DHT22;19640;50.944;5.260;2023-01-25T02:33:46;2.10;99.90
33269;DHT22;19640;50.944;5.260;2023-01-25T02:36:19;2.10;99.90
33269;DHT22;19640;50.944;5.260;2023-01-25T02:39:04;2.00;99.90
33269;DHT22;19640;50.944;5.260;2023-01-25T02:41:41;1.80;99.90
33269;DHT22;19640;50.944;5.260;2023-01-25T02:44:10;1.90;99.90
33269;DHT22;19640;50.944;5.260;2023-01-25T02:46:38;1.90;99.90
33269;DHT22;19640;50.944;5.260;2023-01-25T02:49:06;2.20;99.90
33269;DHT22;19640;50.944;5.260;2023-01-25T02:51:34;2.10;99.90
33269;DHT22;19640;50.944;5.260;2023-01-25T02:54:02;2.10;99.90
33269;DHT22;19640;50.944;5.260;2023-01-25T02:56:28;2.20;99.90
33269;DHT22;19640;50.944;5.260;2023-01-25T02:58:53;2.00;99.90
33269;DHT22;19640;50.944;5.260;2023-01-25T03:01:19;1.80;99.90
33269;DHT22;19640;50.944;5.260;2023-01-25T03:03:45;1.80;99.90
33269;DHT22;19640;50.944;5.260;2023-01-25T03:06:11;1.80;99.90
33269;DHT22;19640;50.944;5.260;2023-01-25T03:08:37;1.90;99.90
33269;DHT22;19640;50.944;5.260;2023-01-25T03:11:04;1.90;99.90
33269;DHT22;19640;50.944;5.260;2023-01-25T03:13:30;2.00;99.90
33269;DHT22;19640;50.944;5.260;2023-01-25T03:16:08;2.10;99.90
33269;DHT22;19640;50.944;5.260;2023-01-25T03:18:34;2.20;99.90
33269;DHT22;19640;50.944;5.260;2023-01-25T03:21:12;1.90;99.90
33269;DHT22;19640;50.944;5.260;2023-01-25T03:23:38;1.90;99.90
33269;DHT22;19640;50.944;5.260;2023-01-25T03:28:38;1.60;99.90
33269;DHT22;19640;50.944;5.260;2023-01-25T03:31:06;1.70;99.90
33269;DHT22;19640;50.944;5.260;2023-01-25T03:33:32;1.80;99.90
33269;DHT22;19640;50.944;5.260;2023-01-25T03:35:58;1.90;99.90
33269;DHT22;19640;50.944;5.260;2023-01-25T03:38:24;2.10;99.90
33269;DHT22;19640;50.944;5.260;2023-01-25T03:40:50;2.20;99.90
33269;DHT22;19640;50.944;5.260;2023-01-25T03:43:16;2.00;99.90
33269;DHT22;19640;50.944;5.260;2023-01-25T03:45:41;2.00;99.90
33269;DHT22;19640;50.944;5.260;2023-01-25T03:48:07;1.90;99.90
33269;DHT22;19640;50.944;5.260;2023-01-25T03:50:33;2.10;99.90
33269;DHT22;19640;50.944;5.260;2023-01-25T03:52:58;2.10;99.90
33269;DHT22;19640;50.944;5.260;2023-01-25T03:55:30;1.90;99.90
33269;DHT22;19640;50.944;5.260;2023-01-25T03:57:56;1.70;99.90
33269;DHT22;19640;50.944;5.260;2023-01-25T04:00:22;1.60;99.90
33269;DHT22;19640;50.944;5.260;2023-01-25T04:02:47;1.60;99.90
33269;DHT22;19640;50.944;5.260;2023-01-25T04:05:13;1.60;99.90
33269;DHT22;19640;50.944;5.260;2023-01-25T04:07:39;1.60;99.90
33269;DHT22;19640;50.944;5.260;2023-01-25T04:10:05;1.80;99.90
33269;DHT22;19640;50.944;5.260;2023-01-25T04:12:31;1.70;99.90
33269;DHT22;19640;50.944;5.260;2023-01-25T04:14:57;1.60;99.90
33269;DHT22;19640;50.944;5.260;2023-01-25T04:17:22;1.60;99.90
33269;DHT22;19640;50.944;5.260;2023-01-25T04:19:48;1.60;99.90
33269;DHT22;19640;50.944;5.260;2023-01-25T04:22:14;1.60;99.90
33269;DHT22;19640;50.944;5.260;2023-01-25T04:24:41;1.50;99.90
33269;DHT22;19640;50.944;5.260;2023-01-25T04:27:07;1.50;99.90
33269;DHT22;19640;50.944;5.260;2023-01-25T04:29:33;1.40;99.90
33269;DHT22;19640;50.944;5.260;2023-01-25T04:31:59;1.30;99.90
33269;DHT22;19640;50.944;5.260;2023-01-25T04:34:25;1.30;99.90
33269;DHT22;19640;50.944;5.260;2023-01-25T04:36:51;1.50;99.90
33269;DHT22;19640;50.944;5.260;2023-01-25T04:39:16;1.80;99.90
33269;DHT22;19640;50.944;5.260;2023-01-25T04:41:42;1.90;99.90
33269;DHT22;19640;50.944;5.260;2023-01-25T04:44:08;2.00;99.90
33269;DHT22;19640;50.944;5.260;2023-01-25T04:46:33;2.00;99.90
33269;DHT22;19640;50.944;5.260;2023-01-25T04:48:59;2.00;99.90
33269;DHT22;19640;50.944;5.260;2023-01-25T04:51:24;2.00;99.90
33269;DHT22;19640;50.944;5.260;2023-01-25T04:53:50;1.90;99.90
33269;DHT22;19640;50.944;5.260;2023-01-25T04:56:16;1.80;99.90
33269;DHT22;19640;50.944;5.260;2023-01-25T04:58:41;1.60;99.90
33269;DHT22;19640;50.944;5.260;2023-01-25T05:01:07;1.40;99.90
33269;DHT22;19640;50.944;5.260;2023-01-25T05:03:33;1.30;99.90
33269;DHT22;19640;50.944;5.260;2023-01-25T05:05:58;1.30;99.90
33269;DHT22;19640;50.944;5.260;2023-01-25T05:08:24;1.40;99.90
33269;DHT22;19640;50.944;5.260;2023-01-25T05:10:53;1.30;99.90
33269;DHT22;19640;50.944;5.260;2023-01-25T05:13:18;1.30;99.90
33269;DHT22;19640;50.944;5.260;2023-01-25T05:15:45;1.20;99.90
33269;DHT22;19640;50.944;5.260;2023-01-25T05:18:10;1.20;99.90
33269;DHT22;19640;50.944;5.260;2023-01-25T05:20:36;1.40;99.90
33269;DHT22;19640;50.944;5.260;2023-01-25T05:23:02;1.50;99.90
33269;DHT22;19640;50.944;5.260;2023-01-25T05:25:27;1.50;99.90
33269;DHT22;19640;50.944;5.260;2023-01-25T05:28:11;1.80;99.90
33269;DHT22;19640;50.944;5.260;2023-01-25T05:30:37;2.10;99.90
33269;DHT22;19640;50.944;5.260;2023-01-25T05:33:03;2.20;99.90
33269;DHT22;19640;50.944;5.260;2023-01-25T05:35:28;2.40;99.90
33269;DHT22;19640;50.944;5.260;2023-01-25T05:37:57;2.50;99.90
33269;DHT22;19640;50.944;5.260;2023-01-25T05:40:27;2.60;99.90
33269;DHT22;19640;50.944;5.260;2023-01-25T05:42:56;2.60;99.90
33269;DHT22;19640;50.944;5.260;2023-01-25T05:45:22;2.90;99.90
33269;DHT22;19640;50.944;5.260;2023-01-25T05:47:52;2.50;99.90
33269;DHT22;19640;50.944;5.260;2023-01-25T05:50:19;2.40;99.90
33269;DHT22;19640;50.944;5.260;2023-01-25T05:52:45;2.30;99.90
33269;DHT22;19640;50.944;5.260;2023-01-25T05:55:11;2.40;99.90
33269;DHT22;19640;50.944;5.260;2023-01-25T05:57:36;2.20;99.90
33269;DHT22;19640;50.944;5.260;2023-01-25T06:00:03;2.30;99.90
33269;DHT22;19640;50.944;5.260;2023-01-25T06:02:29;2.20;99.90
33269;DHT22;19640;50.944;5.260;2023-01-25T06:04:57;2.20;99.90
33269;DHT22;19640;50.944;5.260;2023-01-25T06:07:23;2.20;99.90
33269;DHT22;19640;50.944;5.260;2023-01-25T06:09:49;2.00;99.90
33269;DHT22;19640;50.944;5.260;2023-01-25T06:12:14;2.00;99.90
33269;DHT22;19640;50.944;5.260;2023-01-25T06:14:41;2.00;99.90
33269;DHT22;19640;50.944;5.260;2023-01-25T06:17:07;2.10;99.90
33269;DHT22;19640;50.944;5.260;2023-01-25T06:19:32;2.00;99.90
33269;DHT22;19640;50.944;5.260;2023-01-25T06:21:58;1.90;99.90
33269;DHT22;19640;50.944;5.260;2023-01-25T06:24:24;1.70;99.90
33269;DHT22;19640;50.944;5.260;2023-01-25T06:26:49;1.90;99.90
33269;DHT22;19640;50.944;5.260;2023-01-25T06:29:15;2.10;99.90
33269;DHT22;19640;50.944;5.260;2023-01-25T06:31:40;2.00;99.90
33269;DHT22;19640;50.944;5.260;2023-01-25T06:34:06;2.10;99.90
33269;DHT22;19640;50.944;5.260;2023-01-25T06:36:33;2.10;99.90
33269;DHT22;19640;50.944;5.260;2023-01-25T06:38:58;1.80;99.90
33269;DHT22;19640;50.944;5.260;2023-01-25T06:41:24;1.50;99.90
33269;DHT22;19640;50.944;5.260;2023-01-25T06:43:51;1.20;99.90
33269;DHT22;19640;50.944;5.260;2023-01-25T06:46:17;1.30;99.90
33269;DHT22;19640;50.944;5.260;2023-01-25T06:48:43;1.40;99.90
33269;DHT22;19640;50.944;5.260;2023-01-25T06:51:11;1.50;99.90
33269;DHT22;19640;50.944;5.260;2023-01-25T06:53:39;1.60;99.90
33269;DHT22;19640;50.944;5.260;2023-01-25T06:58:31;1.80;99.90
33269;DHT22;19640;50.944;5.260;2023-01-25T07:01:05;1.90;99.90
33269;DHT22;19640;50.944;5.260;2023-01-25T07:03:33;2.00;99.90
33269;DHT22;19640;50.944;5.260;2023-01-25T07:06:00;2.00;99.90
33269;DHT22;19640;50.944;5.260;2023-01-25T07:08:27;2.00;99.90
33269;DHT22;19640;50.944;5.260;2023-01-25T07:10:54;1.80;99.90
33269;DHT22;19640;50.944;5.260;2023-01-25T07:13:20;2.10;99.90
33269;DHT22;19640;50.944;5.260;2023-01-25T07:15:52;1.90;99.90
33269;DHT22;19640;50.944;5.260;2023-01-25T07:18:18;1.80;99.90
33269;DHT22;19640;50.944;5.260;2023-01-25T07:20:43;1.50;99.90
33269;DHT22;19640;50.944;5.260;2023-01-25T07:23:09;1.60;99.90
33269;DHT22;19640;50.944;5.260;2023-01-25T07:25:34;1.60;99.90
33269;DHT22;19640;50.944;5.260;2023-01-25T07:28:00;1.70;99.90
33269;DHT22;19640;50.944;5.260;2023-01-25T07:30:26;1.70;99.90
33269;DHT22;19640;50.944;5.260;2023-01-25T07:32:51;1.70;99.90
33269;DHT22;19640;50.944;5.260;2023-01-25T07:35:17;1.60;99.90
33269;DHT22;19640;50.944;5.260;2023-01-25T07:37:43;1.50;99.90
33269;DHT22;19640;50.944;5.260;2023-01-25T07:40:09;1.70;99.90
33269;DHT22;19640;50.944;5.260;2023-01-25T07:42:34;1.90;99.90
33269;DHT22;19640;50.944;5.260;2023-01-25T07:45:00;1.90;99.90
33269;DHT22;19640;50.944;5.260;2023-01-25T07:47:26;2.00;99.90
33269;DHT22;19640;50.944;5.260;2023-01-25T07:49:52;2.30;99.90
33269;DHT22;19640;50.944;5.260;2023-01-25T07:52:19;2.60;99.90
33269;DHT22;19640;50.944;5.260;2023-01-25T07:54:45;2.60;99.90
33269;DHT22;19640;50.944;5.260;2023-01-25T07:57:11;2.30;99.90
33269;DHT22;19640;50.944;5.260;2023-01-25T07:59:37;2.30;99.90
33269;DHT22;19640;50.944;5.260;2023-01-25T08:02:02;2.40;99.90
33269;DHT22;19640;50.944;5.260;2023-01-25T08:04:28;2.50;99.90
33269;DHT22;19640;50.944;5.260;2023-01-25T08:06:55;2.20;99.90
33269;DHT22;19640;50.944;5.260;2023-01-25T08:09:21;2.00;99.90
33269;DHT22;19640;50.944;5.260;2023-01-25T08:11:46;2.20;99.90
33269;DHT22;19640;50.944;5.260;2023-01-25T08:14:13;2.20;99.90
33269;DHT22;19640;50.944;5.260;2023-01-25T08:16:39;2.30;99.90
33269;DHT22;19640;50.944;5.260;2023-01-25T08:19:05;2.30;99.90
33269;DHT22;19640;50.944;5.260;2023-01-25T08:21:33;2.40;99.90
33269;DHT22;19640;50.944;5.260;2023-01-25T08:24:01;2.40;99.90
33269;DHT22;19640;50.944;5.260;2023-01-25T08:26:28;2.30;99.90
33269;DHT22;19640;50.944;5.260;2023-01-25T08:28:54;1.90;99.90
33269;DHT22;19640;50.944;5.260;2023-01-25T08:31:23;1.80;99.90
33269;DHT22;19640;50.944;5.260;2023-01-25T08:33:49;1.50;99.90
33269;DHT22;19640;50.944;5.260;2023-01-25T08:36:16;1.40;99.90
33269;DHT22;19640;50.944;5.260;2023-01-25T08:38:44;1.70;99.90
33269;DHT22;19640;50.944;5.260;2023-01-25T08:41:15;1.90;99.90
33269;DHT22;19640;50.944;5.260;2023-01-25T08:43:42;1.80;99.90
33269;DHT22;19640;50.944;5.260;2023-01-25T08:46:08;1.60;99.90
33269;DHT22;19640;50.944;5.260;2023-01-25T08:48:34;1.60;99.90
33269;DHT22;19640;50.944;5.260;2023-01-25T08:51:01;1.70;99.90
33269;DHT22;19640;50.944;5.260;2023-01-25T08:53:28;1.40;99.90
33269;DHT22;19640;50.944;5.260;2023-01-25T08:55:54;1.50;99.90
33269;DHT22;19640;50.944;5.260;2023-01-25T08:58:20;1.00;99.90
33269;DHT22;19640;50.944;5.260;2023-01-25T09:00:47;0.90;99.90
33269;DHT22;19640;50.944;5.260;2023-01-25T09:03:13;0.80;99.90
33269;DHT22;19640;50.944;5.260;2023-01-25T09:05:39;1.10;99.90
33269;DHT22;19640;50.944;5.260;2023-01-25T09:08:07;1.30;99.90
33269;DHT22;19640;50.944;5.260;2023-01-25T09:10:33;1.20;99.90
33269;DHT22;19640;50.944;5.260;2023-01-25T09:12:59;1.20;99.90
33269;DHT22;19640;50.944;5.260;2023-01-25T09:15:25;1.50;99.90
33269;DHT22;19640;50.944;5.260;2023-01-25T09:17:52;1.50;99.90
33269;DHT22;19640;50.944;5.260;2023-01-25T09:20:18;1.30;99.90
33269;DHT22;19640;50.944;5.260;2023-01-25T09:22:44;1.50;99.90
33269;DHT22;19640;50.944;5.260;2023-01-25T09:25:10;1.40;99.90
33269;DHT22;19640;50.944;5.260;2023-01-25T09:27:36;1.60;99.90
33269;DHT22;19640;50.944;5.260;2023-01-25T09:30:06;1.50;99.90
33269;DHT22;19640;50.944;5.260;2023-01-25T09:32:32;1.70;99.90
33269;DHT22;19640;50.944;5.260;2023-01-25T09:34:58;1.60;99.90
33269;DHT22;19640;50.944;5.260;2023-01-25T09:37:23;1.10;99.90
33269;DHT22;19640;50.944;5.260;2023-01-25T09:39:49;1.10;99.90
33269;DHT22;19640;50.944;5.260;2023-01-25T09:47:59;1.80;99.90
33269;DHT22;19640;50.944;5.260;2023-01-25T09:56:24;2.00;99.90
33269;DHT22;19640;50.944;5.260;2023-01-25T09:58:54;2.20;99.90
33269;DHT22;19640;50.944;5.260;2023-01-25T10:01:38;2.30;99.90
33269;DHT22;19640;50.944;5.260;2023-01-25T10:04:17;2.10;99.90
33269;DHT22;19640;50.944;5.260;2023-01-25T10:06:45;2.30;99.90
33269;DHT22;19640;50.944;5.260;2023-01-25T10:11:46;2.30;99.90
33269;DHT22;19640;50.944;5.260;2023-01-25T10:14:14;1.90;99.90
33269;DHT22;19640;50.944;5.260;2023-01-25T10:32:51;2.20;99.90
33269;DHT22;19640;50.944;5.260;2023-01-25T10:35:22;2.30;99.90
33269;DHT22;19640;50.944;5.260;2023-01-25T10:37:50;2.10;99.90
33269;DHT22;19640;50.944;5.260;2023-01-25T10:40:23;2.00;99.90
33269;DHT22;19640;50.944;5.260;2023-01-25T10:43:15;2.20;99.90
33269;DHT22;19640;50.944;5.260;2023-01-25T10:45:42;2.20;99.90
33269;DHT22;19640;50.944;5.260;2023-01-25T10:48:16;1.80;99.90
33269;DHT22;19640;50.944;5.260;2023-01-25T10:50:44;1.40;99.90
33269;DHT22;19640;50.944;5.260;2023-01-25T10:53:31;1.30;99.90
33269;DHT22;19640;50.944;5.260;2023-01-25T11:01:05;1.50;99.90
33269;DHT22;19640;50.944;5.260;2023-01-25T11:03:40;1.60;99.90
33269;DHT22;19640;50.944;5.260;2023-01-25T11:06:07;1.60;99.90
33269;DHT22;19640;50.944;5.260;2023-01-25T11:08:38;1.70;99.90
33269;DHT22;19640;50.944;5.260;2023-01-25T11:13:54;1.80;99.90
33269;DHT22;19640;50.944;5.260;2023-01-25T11:16:37;1.70;99.90
33269;DHT22;19640;50.944;5.260;2023-01-25T11:21:53;1.20;99.90
33269;DHT22;19640;50.944;5.260;2023-01-25T11:24:20;1.40;99.90
33269;DHT22;19640;50.944;5.260;2023-01-25T11:26:49;1.60;99.90
33269;DHT22;19640;50.944;5.260;2023-01-25T11:29:20;1.40;99.90
33269;DHT22;19640;50.944;5.260;2023-01-25T11:31:48;1.60;99.90
33269;DHT22;19640;50.944;5.260;2023-01-25T11:34:17;1.90;99.90
33269;DHT22;19640;50.944;5.260;2023-01-25T11:42:22;2.00;99.90
33269;DHT22;19640;50.944;5.260;2023-01-25T11:53:17;2.10;99.90
33269;DHT22;19640;50.944;5.260;2023-01-25T11:58:40;2.40;99.90
33269;DHT22;19640;50.944;5.260;2023-01-25T12:01:19;2.30;99.90
33269;DHT22;19640;50.944;5.260;2023-01-25T12:09:29;1.80;99.90
33269;DHT22;19640;50.944;5.260;2023-01-25T12:12:18;1.60;99.90
33269;DHT22;19640;50.944;5.260;2023-01-25T12:20:20;1.50;99.90
33269;DHT22;19640;50.944;5.260;2023-01-25T12:28:23;1.60;99.90
33269;DHT22;19640;50.944;5.260;2023-01-25T12:31:01;1.70;99.90
33269;DHT22;19640;50.944;5.260;2023-01-25T12:33:33;1.70;99.90
33269;DHT22;19640;50.944;5.260;2023-01-25T12:39:12;1.60;99.90
33269;DHT22;19640;50.944;5.260;2023-01-25T12:41:57;1.80;99.90
33269;DHT22;19640;50.944;5.260;2023-01-25T12:44:47;1.50;99.90
33269;DHT22;19640;50.944;5.260;2023-01-25T12:47:27;1.60;99.90
33269;DHT22;19640;50.944;5.260;2023-01-25T12:49:59;1.80;99.90
33269;DHT22;19640;50.944;5.260;2023-01-25T12:52:35;2.10;99.90
33269;DHT22;19640;50.944;5.260;2023-01-25T12:55:04;1.40;99.90
33269;DHT22;19640;50.944;5.260;2023-01-25T13:05:49;1.50;99.90
33269;DHT22;19640;50.944;5.260;2023-01-25T13:08:36;1.70;99.90
33269;DHT22;19640;50.944;5.260;2023-01-25T13:11:24;1.60;99.90
33269;DHT22;19640;50.944;5.260;2023-01-25T13:13:51;1.80;99.90
33269;DHT22;19640;50.944;5.260;2023-01-25T13:18:57;2.30;99.90
33269;DHT22;19640;50.944;5.260;2023-01-25T13:24:16;2.00;99.90
33269;DHT22;19640;50.944;5.260;2023-01-25T13:32:10;2.10;99.90
33269;DHT22;19640;50.944;5.260;2023-01-25T13:37:25;1.00;99.90
33269;DHT22;19640;50.944;5.260;2023-01-25T13:42:31;1.50;99.90
33269;DHT22;19640;50.944;5.260;2023-01-25T13:44:58;1.50;99.90
33269;DHT22;19640;50.944;5.260;2023-01-25T13:47:29;1.60;99.90
33269;DHT22;19640;50.944;5.260;2023-01-25T13:52:58;1.30;99.90
33269;DHT22;19640;50.944;5.260;2023-01-25T13:55:24;1.70;99.90
33269;DHT22;19640;50.944;5.260;2023-01-25T13:57:49;1.90;99.90
33269;DHT22;19640;50.944;5.260;2023-01-25T14:00:16;2.00;99.90
33269;DHT22;19640;50.944;5.260;2023-01-25T14:02:43;2.20;99.90
33269;DHT22;19640;50.944;5.260;2023-01-25T14:05:19;2.20;99.90
33269;DHT22;19640;50.944;5.260;2023-01-25T14:07:48;2.00;99.90
33269;DHT22;19640;50.944;5.260;2023-01-25T14:10:18;2.00;99.90
33269;DHT22;19640;50.944;5.260;2023-01-25T14:12:48;2.10;99.90
33269;DHT22;19640;50.944;5.260;2023-01-25T14:15:18;1.60;99.90
33269;DHT22;19640;50.944;5.260;2023-01-25T14:17:45;1.50;99.90
33269;DHT22;19640;50.944;5.260;2023-01-25T14:20:19;1.40;99.90
33269;DHT22;19640;50.944;5.260;2023-01-25T14:22:49;1.20;99.90
33269;DHT22;19640;50.944;5.260;2023-01-25T14:25:20;0.90;99.90
33269;DHT22;19640;50.944;5.260;2023-01-25T14:27:54;1.00;99.90
33269;DHT22;19640;50.944;5.260;2023-01-25T14:30:28;1.30;99.90
33269;DHT22;19640;50.944;5.260;2023-01-25T14:32:58;1.30;99.90
33269;DHT22;19640;50.944;5.260;2023-01-25T14:35:37;1.30;99.90
33269;DHT22;19640;50.944;5.260;2023-01-25T14:40:47;1.50;99.90
33269;DHT22;19640;50.944;5.260;2023-01-25T14:43:15;1.60;99.90
33269;DHT22;19640;50.944;5.260;2023-01-25T14:45:41;1.20;99.90
33269;DHT22;19640;50.944;5.260;2023-01-25T14:48:36;1.00;99.90
33269;DHT22;19640;50.944;5.260;2023-01-25T14:51:16;1.10;99.90
33269;DHT22;19640;50.944;5.260;2023-01-25T14:53:45;1.00;99.90
33269;DHT22;19640;50.944;5.260;2023-01-25T14:56:45;1.30;99.90
33269;DHT22;19640;50.944;5.260;2023-01-25T14:59:33;1.60;99.90
33269;DHT22;19640;50.944;5.260;2023-01-25T15:05:05;1.70;99.90
33269;DHT22;19640;50.944;5.260;2023-01-25T15:07:41;1.40;99.90
33269;DHT22;19640;50.944;5.260;2023-01-25T15:12:41;1.00;99.90
33269;DHT22;19640;50.944;5.260;2023-01-25T15:15:20;1.10;99.90
33269;DHT22;19640;50.944;5.260;2023-01-25T15:17:48;0.90;99.90
33269;DHT22;19640;50.944;5.260;2023-01-25T15:20:38;1.10;99.90
33269;DHT22;19640;50.944;5.260;2023-01-25T15:23:28;0.90;99.90
33269;DHT22;19640;50.944;5.260;2023-01-25T15:25:58;0.80;99.90
33269;DHT22;19640;50.944;5.260;2023-01-25T15:28:27;1.10;99.90
33269;DHT22;19640;50.944;5.260;2023-01-25T15:30:54;1.10;99.90
33269;DHT22;19640;50.944;5.260;2023-01-25T15:33:25;1.20;99.90
33269;DHT22;19640;50.944;5.260;2023-01-25T15:35:52;1.30;99.90
33269;DHT22;19640;50.944;5.260;2023-01-25T15:38:18;1.30;99.90
33269;DHT22;19640;50.944;5.260;2023-01-25T15:40:44;1.20;99.90
33269;DHT22;19640;50.944;5.260;2023-01-25T15:43:15;0.80;99.90
33269;DHT22;19640;50.944;5.260;2023-01-25T15:45:42;1.00;99.90
33269;DHT22;19640;50.944;5.260;2023-01-25T15:48:15;0.70;99.90
33269;DHT22;19640;50.944;5.260;2023-01-25T15:50:42;0.70;99.90
33269;DHT22;19640;50.944;5.260;2023-01-25T15:53:15;0.80;99.90
33269;DHT22;19640;50.944;5.260;2023-01-25T15:55:46;1.10;99.90
33269;DHT22;19640;50.944;5.260;2023-01-25T15:58:20;1.20;99.90
33269;DHT22;19640;50.944;5.260;2023-01-25T16:00:47;1.20;99.90
33269;DHT22;19640;50.944;5.260;2023-01-25T16:03:13;1.30;99.90
33269;DHT22;19640;50.944;5.260;2023-01-25T16:05:39;1.20;99.90
33269;DHT22;19640;50.944;5.260;2023-01-25T16:08:05;1.10;99.90
33269;DHT22;19640;50.944;5.260;2023-01-25T16:10:30;1.00;99.90
33269;DHT22;19640;50.944;5.260;2023-01-25T16:12:57;0.80;99.90
33269;DHT22;19640;50.944;5.260;2023-01-25T16:15:23;0.90;99.90
33269;DHT22;19640;50.944;5.260;2023-01-25T16:17:49;0.90;99.90
33269;DHT22;19640;50.944;5.260;2023-01-25T16:20:19;0.90;99.90
33269;DHT22;19640;50.944;5.260;2023-01-25T16:22:46;1.10;99.90
33269;DHT22;19640;50.944;5.260;2023-01-25T16:25:12;0.90;99.90
33269;DHT22;19640;50.944;5.260;2023-01-25T16:27:38;0.80;99.90
33269;DHT22;19640;50.944;5.260;2023-01-25T16:30:05;0.70;99.90
33269;DHT22;19640;50.944;5.260;2023-01-25T16:32:31;0.60;99.90
33269;DHT22;19640;50.944;5.260;2023-01-25T16:34:57;0.60;99.90
33269;DHT22;19640;50.944;5.260;2023-01-25T16:37:23;0.40;99.90
33269;DHT22;19640;50.944;5.260;2023-01-25T16:39:48;0.50;99.90
33269;DHT22;19640;50.944;5.260;2023-01-25T16:42:16;0.40;99.90
33269;DHT22;19640;50.944;5.260;2023-01-25T16:44:41;0.70;99.90
33269;DHT22;19640;50.944;5.260;2023-01-25T16:47:13;0.90;99.90
33269;DHT22;19640;50.944;5.260;2023-01-25T16:49:39;0.90;99.90
33269;DHT22;19640;50.944;5.260;2023-01-25T16:52:04;1.00;99.90
33269;DHT22;19640;50.944;5.260;2023-01-25T16:54:30;1.10;99.90
33269;DHT22;19640;50.944;5.260;2023-01-25T16:56:56;0.80;99.90
33269;DHT22;19640;50.944;5.260;2023-01-25T16:59:23;0.80;99.90
33269;DHT22;19640;50.944;5.260;2023-01-25T17:01:48;0.50;99.90
33269;DHT22;19640;50.944;5.260;2023-01-25T17:04:14;0.40;99.90
33269;DHT22;19640;50.944;5.260;2023-01-25T17:06:43;0.30;99.90
33269;DHT22;19640;50.944;5.260;2023-01-25T17:09:17;0.30;99.90
33269;DHT22;19640;50.944;5.260;2023-01-25T17:11:44;0.30;99.90
33269;DHT22;19640;50.944;5.260;2023-01-25T17:14:13;0.20;99.90
33269;DHT22;19640;50.944;5.260;2023-01-25T17:16:39;0.30;99.90
33269;DHT22;19640;50.944;5.260;2023-01-25T17:19:07;0.30;99.90
33269;DHT22;19640;50.944;5.260;2023-01-25T17:21:35;0.10;99.90
33269;DHT22;19640;50.944;5.260;2023-01-25T17:24:01;0.10;99.90
33269;DHT22;19640;50.944;5.260;2023-01-25T17:26:29;0.40;99.90
33269;DHT22;19640;50.944;5.260;2023-01-25T17:28:57;0.30;99.90
33269;DHT22;19640;50.944;5.260;2023-01-25T17:31:31;0.30;99.90
33269;DHT22;19640;50.944;5.260;2023-01-25T17:34:00;0.10;99.90
33269;DHT22;19640;50.944;5.260;2023-01-25T17:36:26;0.10;99.90
33269;DHT22;19640;50.944;5.260;2023-01-25T17:38:52;0.20;99.90
33269;DHT22;19640;50.944;5.260;2023-01-25T17:41:18;0.30;99.90
33269;DHT22;19640;50.944;5.260;2023-01-25T17:43:49;0.40;99.90
33269;DHT22;19640;50.944;5.260;2023-01-25T17:46:30;0.30;99.90
33269;DHT22;19640;50.944;5.260;2023-01-25T17:48:58;-0.10;99.90
33269;DHT22;19640;50.944;5.260;2023-01-25T17:51:25;0.00;99.90
33269;DHT22;19640;50.944;5.260;2023-01-25T17:53:51;0.10;99.90
33269;DHT22;19640;50.944;5.260;2023-01-25T17:56:17;0.30;99.90
33269;DHT22;19640;50.944;5.260;2023-01-25T17:58:44;0.50;99.90
33269;DHT22;19640;50.944;5.260;2023-01-25T18:01:14;0.30;99.90
33269;DHT22;19640;50.944;5.260;2023-01-25T18:03:41;0.30;99.90
33269;DHT22;19640;50.944;5.260;2023-01-25T18:06:07;0.20;99.90